sensor_id;sensor_type;location;lat;lon;timestamp;temperature;humidity
14908;DHT22;7545;52.092;7.006;2023-07-16T00:01:59;20.30;99.90
14908;DHT22;7545;52.092;7.006;2023-07-16T00:04:25;20.30;99.90
14908;DHT22;7545;52.092;7.006;2023-07-16T00:06:51;20.30;99.90
14908;DHT22;7545;52.092;7.006;2023-07-16T00:09:19;20.20;99.90
14908;DHT22;7545;52.092;7.006;2023-07-16T00:11:44;20.20;99.90
14908;DHT22;7545;52.092;7.006;2023-07-16T00:14:11;20.20;99.90
14908;DHT22;7545;52.092;7.006;2023-07-16T00:16:37;20.20;99.90
14908;DHT22;7545;52.092;7.006;2023-07-16T00:19:03;20.10;99.90
14908;DHT22;7545;52.092;7.006;2023-07-16T00:21:28;20.10;99.90
14908;DHT22;7545;52.092;7.006;2023-07-16T00:23:54;20.10;99.90
14908;DHT22;7545;52.092;7.006;2023-07-16T00:26:21;20.10;99.90
14908;DHT22;7545;52.092;7.006;2023-07-16T00:28:47;20.10;99.90
14908;DHT22;7545;52.092;7.006;2023-07-16T00:31:12;20.00;99.90
14908;DHT22;7545;52.092;7.006;2023-07-16T00:33:38;20.00;99.90
14908;DHT22;7545;52.092;7.006;2023-07-16T00:36:04;20.00;99.90
14908;DHT22;7545;52.092;7.006;2023-07-16T00:38:29;20.00;99.90
14908;DHT22;7545;52.092;7.006;2023-07-16T00:40:56;20.00;99.90
14908;DHT22;7545;52.092;7.006;2023-07-16T00:43:22;19.90;99.90
14908;DHT22;7545;52.092;7.006;2023-07-16T00:45:47;19.90;99.90
14908;DHT22;7545;52.092;7.006;2023-07-16T00:48:13;19.80;99.90
14908;DHT22;7545;52.092;7.006;2023-07-16T00:50:39;19.80;99.90
14908;DHT22;7545;52.092;7.006;2023-07-16T00:53:06;19.70;99.90
14908;DHT22;7545;52.092;7.006;2023-07-16T00:55:33;19.70;99.90
14908;DHT22;7545;52.092;7.006;2023-07-16T00:58:05;19.60;99.90
14908;DHT22;7545;52.092;7.006;2023-07-16T01:00:35;19.60;99.90
14908;DHT22;7545;52.092;7.006;2023-07-16T01:03:11;19.60;99.90
14908;DHT22;7545;52.092;7.006;2023-07-16T01:08:56;19.60;99.90
14908;DHT22;7545;52.092;7.006;2023-07-16T01:11:23;19.50;99.90
14908;DHT22;7545;52.092;7.006;2023-07-16T01:13:50;19.50;99.90
14908;DHT22;7545;52.092;7.006;2023-07-16T01:16:24;19.50;99.90
14908;DHT22;7545;52.092;7.006;2023-07-16T01:18:50;19.50;99.90
14908;DHT22;7545;52.092;7.006;2023-07-16T01:21:20;19.50;99.90
14908;DHT22;7545;52.092;7.006;2023-07-16T01:24:13;19.40;99.90
14908;DHT22;7545;52.092;7.006;2023-07-16T01:31:46;19.50;99.90
14908;DHT22;7545;52.092;7.006;2023-07-16T01:34:20;19.50;99.90
14908;DHT22;7545;52.092;7.006;2023-07-16T01:36:46;19.50;99.90
14908;DHT22;7545;52.092;7.006;2023-07-16T01:39:12;19.40;99.90
14908;DHT22;7545;52.092;7.006;2023-07-16T01:41:38;19.50;99.90
14908;DHT22;7545;52.092;7.006;2023-07-16T01:44:03;19.40;99.90
14908;DHT22;7545;52.092;7.006;2023-07-16T01:46:29;19.40;99.90
14908;DHT22;7545;52.092;7.006;2023-07-16T01:48:55;19.40;99.90
14908;DHT22;7545;52.092;7.006;2023-07-16T01:51:20;19.40;99.90
14908;DHT22;7545;52.092;7.006;2023-07-16T01:53:46;19.40;99.90
14908;DHT22;7545;52.092;7.006;2023-07-16T01:56:12;19.30;99.90
14908;DHT22;7545;52.092;7.006;2023-07-16T01:58:38;19.30;99.90
14908;DHT22;7545;52.092;7.006;2023-07-16T02:01:03;19.30;99.90
14908;DHT22;7545;52.092;7.006;2023-07-16T02:03:29;19.20;99.90
14908;DHT22;7545;52.092;7.006;2023-07-16T02:05:55;19.20;99.90
14908;DHT22;7545;52.092;7.006;2023-07-16T02:08:20;19.20;99.90
14908;DHT22;7545;52.092;7.006;2023-07-16T02:10:49;19.10;99.90
14908;DHT22;7545;52.092;7.006;2023-07-16T02:13:15;19.10;99.90
14908;DHT22;7545;52.092;7.006;2023-07-16T02:15:40;19.10;99.90
14908;DHT22;7545;52.092;7.006;2023-07-16T02:18:06;19.10;99.90
14908;DHT22;7545;52.092;7.006;2023-07-16T02:20:32;19.10;99.90
14908;DHT22;7545;52.092;7.006;2023-07-16T02:22:57;19.00;99.90
14908;DHT22;7545;52.092;7.006;2023-07-16T02:25:23;19.00;99.90
14908;DHT22;7545;52.092;7.006;2023-07-16T02:27:49;19.00;99.90
14908;DHT22;7545;52.092;7.006;2023-07-16T02:30:15;18.90;99.90
14908;DHT22;7545;52.092;7.006;2023-07-16T02:32:41;18.90;99.90
14908;DHT22;7545;52.092;7.006;2023-07-16T02:35:07;18.90;99.90
14908;DHT22;7545;52.092;7.006;2023-07-16T02:37:32;18.90;99.90
14908;DHT22;7545;52.092;7.006;2023-07-16T02:39:58;18.90;99.90
14908;DHT22;7545;52.092;7.006;2023-07-16T02:42:24;18.90;99.90
14908;DHT22;7545;52.092;7.006;2023-07-16T02:44:50;18.80;99.90
14908;DHT22;7545;52.092;7.006;2023-07-16T02:47:15;18.80;99.90
14908;DHT22;7545;52.092;7.006;2023-07-16T02:49:41;18.80;99.90
14908;DHT22;7545;52.092;7.006;2023-07-16T02:52:07;18.80;99.90
14908;DHT22;7545;52.092;7.006;2023-07-16T02:54:32;18.80;99.90
14908;DHT22;7545;52.092;7.006;2023-07-16T02:56:58;18.80;99.90
14908;DHT22;7545;52.092;7.006;2023-07-16T02:59:24;18.70;99.90
14908;DHT22;7545;52.092;7.006;2023-07-16T03:01:50;18.70;99.90
14908;DHT22;7545;52.092;7.006;2023-07-16T03:04:16;18.70;99.90
14908;DHT22;7545;52.092;7.006;2023-07-16T03:06:42;18.70;99.90
14908;DHT22;7545;52.092;7.006;2023-07-16T03:09:07;18.70;99.90
14908;DHT22;7545;52.092;7.006;2023-07-16T03:11:33;18.70;99.90
14908;DHT22;7545;52.092;7.006;2023-07-16T03:13:58;18.70;99.90
14908;DHT22;7545;52.092;7.006;2023-07-16T03:16:24;18.70;99.90
14908;DHT22;7545;52.092;7.006;2023-07-16T03:18:49;18.70;99.90
14908;DHT22;7545;52.092;7.006;2023-07-16T03:21:15;18.70;99.90
14908;DHT22;7545;52.092;7.006;2023-07-16T03:23:40;18.70;99.90
14908;DHT22;7545;52.092;7.006;2023-07-16T03:26:06;18.70;99.90
14908;DHT22;7545;52.092;7.006;2023-07-16T03:28:32;18.60;99.90
14908;DHT22;7545;52.092;7.006;2023-07-16T03:30:57;18.60;99.90
14908;DHT22;7545;52.092;7.006;2023-07-16T03:33:23;18.60;99.90
14908;DHT22;7545;52.092;7.006;2023-07-16T03:35:49;18.60;99.90
14908;DHT22;7545;52.092;7.006;2023-07-16T03:38:15;18.50;99.90
14908;DHT22;7545;52.092;7.006;2023-07-16T03:40:48;18.50;99.90
14908;DHT22;7545;52.092;7.006;2023-07-16T03:43:15;18.50;99.90
14908;DHT22;7545;52.092;7.006;2023-07-16T03:45:41;18.50;99.90
14908;DHT22;7545;52.092;7.006;2023-07-16T03:48:06;18.50;99.90
14908;DHT22;7545;52.092;7.006;2023-07-16T03:50:32;18.50;99.90
14908;DHT22;7545;52.092;7.006;2023-07-16T03:52:58;18.50;99.90
14908;DHT22;7545;52.092;7.006;2023-07-16T03:55:24;18.40;99.90
14908;DHT22;7545;52.092;7.006;2023-07-16T03:57:49;18.40;99.90
14908;DHT22;7545;52.092;7.006;2023-07-16T04:00:15;18.40;99.90
14908;DHT22;7545;52.092;7.006;2023-07-16T04:02:41;18.40;99.90
14908;DHT22;7545;52.092;7.006;2023-07-16T04:05:07;18.40;99.90
14908;DHT22;7545;52.092;7.006;2023-07-16T04:07:32;18.40;99.90
14908;DHT22;7545;52.092;7.006;2023-07-16T04:09:58;18.40;99.90
14908;DHT22;7545;52.092;7.006;2023-07-16T04:12:24;18.40;99.90
14908;DHT22;7545;52.092;7.006;2023-07-16T04:14:54;18.40;99.90
14908;DHT22;7545;52.092;7.006;2023-07-16T04:17:20;18.40;99.90
14908;DHT22;7545;52.092;7.006;2023-07-16T04:19:45;18.40;99.90
14908;DHT22;7545;52.092;7.006;2023-07-16T04:22:11;18.40;99.90
14908;DHT22;7545;52.092;7.006;2023-07-16T04:24:36;18.40;99.90
14908;DHT22;7545;52.092;7.006;2023-07-16T04:27:02;18.40;99.90
14908;DHT22;7545;52.092;7.006;2023-07-16T04:29:28;18.40;99.90
14908;DHT22;7545;52.092;7.006;2023-07-16T04:31:53;18.40;99.90
14908;DHT22;7545;52.092;7.006;2023-07-16T04:34:19;18.40;99.90
14908;DHT22;7545;52.092;7.006;2023-07-16T04:36:44;18.40;99.90
14908;DHT22;7545;52.092;7.006;2023-07-16T04:39:10;18.40;99.90
14908;DHT22;7545;52.092;7.006;2023-07-16T04:41:36;18.40;99.90
14908;DHT22;7545;52.092;7.006;2023-07-16T04:44:01;18.40;99.90
14908;DHT22;7545;52.092;7.006;2023-07-16T04:46:27;18.50;99.90
14908;DHT22;7545;52.092;7.006;2023-07-16T04:48:53;18.40;99.90
14908;DHT22;7545;52.092;7.006;2023-07-16T04:51:18;18.40;99.90
14908;DHT22;7545;52.092;7.006;2023-07-16T04:53:44;18.40;99.90
14908;DHT22;7545;52.092;7.006;2023-07-16T04:56:13;18.40;99.90
14908;DHT22;7545;52.092;7.006;2023-07-16T04:58:39;18.50;99.90
14908;DHT22;7545;52.092;7.006;2023-07-16T05:01:04;18.50;99.90
14908;DHT22;7545;52.092;7.006;2023-07-16T05:03:30;18.50;99.90
14908;DHT22;7545;52.092;7.006;2023-07-16T05:05:56;18.50;99.90
14908;DHT22;7545;52.092;7.006;2023-07-16T05:08:21;18.50;99.90
14908;DHT22;7545;52.092;7.006;2023-07-16T05:10:47;18.50;99.90
14908;DHT22;7545;52.092;7.006;2023-07-16T05:13:12;18.40;99.90
14908;DHT22;7545;52.092;7.006;2023-07-16T05:15:38;18.50;99.90
14908;DHT22;7545;52.092;7.006;2023-07-16T05:18:03;18.40;99.90
14908;DHT22;7545;52.092;7.006;2023-07-16T05:20:29;18.40;99.90
14908;DHT22;7545;52.092;7.006;2023-07-16T05:22:55;18.40;99.90
14908;DHT22;7545;52.092;7.006;2023-07-16T05:25:20;18.40;99.90
14908;DHT22;7545;52.092;7.006;2023-07-16T05:27:46;18.40;99.90
14908;DHT22;7545;52.092;7.006;2023-07-16T05:30:12;18.40;99.90
14908;DHT22;7545;52.092;7.006;2023-07-16T05:32:38;18.40;99.90
14908;DHT22;7545;52.092;7.006;2023-07-16T05:35:04;18.40;99.90
14908;DHT22;7545;52.092;7.006;2023-07-16T05:37:29;18.40;99.90
14908;DHT22;7545;52.092;7.006;2023-07-16T05:39:55;18.40;99.90
14908;DHT22;7545;52.092;7.006;2023-07-16T05:42:21;18.30;99.90
14908;DHT22;7545;52.092;7.006;2023-07-16T05:44:49;18.30;99.90
14908;DHT22;7545;52.092;7.006;2023-07-16T05:47:15;18.30;99.90
14908;DHT22;7545;52.092;7.006;2023-07-16T05:49:41;18.30;99.90
14908;DHT22;7545;52.092;7.006;2023-07-16T05:52:06;18.30;99.90
14908;DHT22;7545;52.092;7.006;2023-07-16T05:54:32;18.40;99.90
14908;DHT22;7545;52.092;7.006;2023-07-16T05:56:58;18.30;99.90
14908;DHT22;7545;52.092;7.006;2023-07-16T05:59:23;18.40;99.90
14908;DHT22;7545;52.092;7.006;2023-07-16T06:01:50;18.40;99.90
14908;DHT22;7545;52.092;7.006;2023-07-16T06:04:15;18.40;99.90
14908;DHT22;7545;52.092;7.006;2023-07-16T06:06:41;18.30;99.90
14908;DHT22;7545;52.092;7.006;2023-07-16T06:09:07;18.40;99.90
14908;DHT22;7545;52.092;7.006;2023-07-16T06:11:32;18.40;99.90
14908;DHT22;7545;52.092;7.006;2023-07-16T06:13:58;18.50;99.90
14908;DHT22;7545;52.092;7.006;2023-07-16T06:16:23;18.50;99.90
14908;DHT22;7545;52.092;7.006;2023-07-16T06:18:49;18.50;99.90
14908;DHT22;7545;52.092;7.006;2023-07-16T06:21:14;18.50;99.90
14908;DHT22;7545;52.092;7.006;2023-07-16T06:23:40;18.50;99.90
14908;DHT22;7545;52.092;7.006;2023-07-16T06:26:06;18.50;99.90
14908;DHT22;7545;52.092;7.006;2023-07-16T06:28:32;18.50;99.90
14908;DHT22;7545;52.092;7.006;2023-07-16T06:30:57;18.50;99.90
14908;DHT22;7545;52.092;7.006;2023-07-16T06:33:23;18.50;99.90
14908;DHT22;7545;52.092;7.006;2023-07-16T06:35:50;18.50;99.90
14908;DHT22;7545;52.092;7.006;2023-07-16T06:38:16;18.60;99.90
14908;DHT22;7545;52.092;7.006;2023-07-16T06:40:48;18.60;99.90
14908;DHT22;7545;52.092;7.006;2023-07-16T06:43:15;18.60;99.90
14908;DHT22;7545;52.092;7.006;2023-07-16T06:45:41;18.70;99.90
14908;DHT22;7545;52.092;7.006;2023-07-16T06:48:06;18.70;99.90
14908;DHT22;7545;52.092;7.006;2023-07-16T06:50:32;18.70;99.90
14908;DHT22;7545;52.092;7.006;2023-07-16T06:52:57;18.70;99.90
14908;DHT22;7545;52.092;7.006;2023-07-16T06:55:23;18.70;99.90
14908;DHT22;7545;52.092;7.006;2023-07-16T06:57:49;18.70;99.90
14908;DHT22;7545;52.092;7.006;2023-07-16T07:00:14;18.80;99.90
14908;DHT22;7545;52.092;7.006;2023-07-16T07:02:40;18.80;99.90
14908;DHT22;7545;52.092;7.006;2023-07-16T07:05:06;18.80;99.90
14908;DHT22;7545;52.092;7.006;2023-07-16T07:07:32;18.80;99.90
14908;DHT22;7545;52.092;7.006;2023-07-16T07:10:01;18.80;99.90
14908;DHT22;7545;52.092;7.006;2023-07-16T07:12:26;18.80;99.90
14908;DHT22;7545;52.092;7.006;2023-07-16T07:14:52;18.80;99.90
14908;DHT22;7545;52.092;7.006;2023-07-16T07:17:18;18.90;99.90
14908;DHT22;7545;52.092;7.006;2023-07-16T07:19:43;18.90;99.90
14908;DHT22;7545;52.092;7.006;2023-07-16T07:22:09;18.90;99.90
14908;DHT22;7545;52.092;7.006;2023-07-16T07:24:35;19.00;99.90
14908;DHT22;7545;52.092;7.006;2023-07-16T07:27:01;19.00;99.90
14908;DHT22;7545;52.092;7.006;2023-07-16T07:29:26;19.00;99.90
14908;DHT22;7545;52.092;7.006;2023-07-16T07:31:52;19.10;99.90
14908;DHT22;7545;52.092;7.006;2023-07-16T07:34:18;19.20;99.90
14908;DHT22;7545;52.092;7.006;2023-07-16T07:36:44;19.20;99.90
14908;DHT22;7545;52.092;7.006;2023-07-16T07:39:10;19.30;99.90
14908;DHT22;7545;52.092;7.006;2023-07-16T07:41:36;19.30;99.90
14908;DHT22;7545;52.092;7.006;2023-07-16T07:44:01;19.30;99.90
14908;DHT22;7545;52.092;7.006;2023-07-16T07:46:27;19.40;99.90
14908;DHT22;7545;52.092;7.006;2023-07-16T07:48:53;19.40;99.90
14908;DHT22;7545;52.092;7.006;2023-07-16T07:51:19;19.40;99.90
14908;DHT22;7545;52.092;7.006;2023-07-16T07:53:45;19.40;99.90
14908;DHT22;7545;52.092;7.006;2023-07-16T07:56:11;19.50;99.90
14908;DHT22;7545;52.092;7.006;2023-07-16T07:58:36;19.50;99.90
14908;DHT22;7545;52.092;7.006;2023-07-16T08:01:08;19.60;99.90
14908;DHT22;7545;52.092;7.006;2023-07-16T08:03:34;19.60;99.90
14908;DHT22;7545;52.092;7.006;2023-07-16T08:06:00;19.60;99.90
14908;DHT22;7545;52.092;7.006;2023-07-16T08:08:26;19.60;99.90
14908;DHT22;7545;52.092;7.006;2023-07-16T08:10:52;19.70;99.90
14908;DHT22;7545;52.092;7.006;2023-07-16T08:13:18;19.70;99.90
14908;DHT22;7545;52.092;7.006;2023-07-16T08:15:43;19.80;99.90
14908;DHT22;7545;52.092;7.006;2023-07-16T08:18:09;19.80;99.90
14908;DHT22;7545;52.092;7.006;2023-07-16T08:20:38;19.90;99.90
14908;DHT22;7545;52.092;7.006;2023-07-16T08:23:03;20.00;99.90
14908;DHT22;7545;52.092;7.006;2023-07-16T08:25:29;20.00;99.90
14908;DHT22;7545;52.092;7.006;2023-07-16T08:27:55;20.00;99.90
14908;DHT22;7545;52.092;7.006;2023-07-16T08:30:21;20.10;99.90
14908;DHT22;7545;52.092;7.006;2023-07-16T08:32:47;20.10;99.90
14908;DHT22;7545;52.092;7.006;2023-07-16T08:35:12;20.10;99.90
14908;DHT22;7545;52.092;7.006;2023-07-16T08:37:45;20.10;99.90
14908;DHT22;7545;52.092;7.006;2023-07-16T08:40:11;20.10;99.90
14908;DHT22;7545;52.092;7.006;2023-07-16T08:42:39;20.10;99.90
14908;DHT22;7545;52.092;7.006;2023-07-16T08:45:10;20.10;99.90
14908;DHT22;7545;52.092;7.006;2023-07-16T08:47:36;20.20;99.90
14908;DHT22;7545;52.092;7.006;2023-07-16T08:50:02;20.20;99.90
14908;DHT22;7545;52.092;7.006;2023-07-16T08:52:28;20.20;99.90
14908;DHT22;7545;52.092;7.006;2023-07-16T08:54:54;20.30;99.90
14908;DHT22;7545;52.092;7.006;2023-07-16T08:57:21;20.40;99.90
14908;DHT22;7545;52.092;7.006;2023-07-16T08:59:51;20.50;99.90
14908;DHT22;7545;52.092;7.006;2023-07-16T09:02:20;20.60;99.90
14908;DHT22;7545;52.092;7.006;2023-07-16T09:04:47;20.60;99.90
14908;DHT22;7545;52.092;7.006;2023-07-16T09:07:13;20.70;99.90
14908;DHT22;7545;52.092;7.006;2023-07-16T09:09:39;20.90;99.90
14908;DHT22;7545;52.092;7.006;2023-07-16T09:12:05;21.00;99.90
14908;DHT22;7545;52.092;7.006;2023-07-16T09:14:30;21.00;99.90
14908;DHT22;7545;52.092;7.006;2023-07-16T09:16:56;21.10;99.90
14908;DHT22;7545;52.092;7.006;2023-07-16T09:19:22;21.10;99.90
14908;DHT22;7545;52.092;7.006;2023-07-16T09:21:48;21.20;99.90
14908;DHT22;7545;52.092;7.006;2023-07-16T09:24:14;21.30;99.90
14908;DHT22;7545;52.092;7.006;2023-07-16T09:26:48;21.30;99.90
14908;DHT22;7545;52.092;7.006;2023-07-16T09:29:14;21.30;99.90
14908;DHT22;7545;52.092;7.006;2023-07-16T09:31:59;21.40;99.90
14908;DHT22;7545;52.092;7.006;2023-07-16T09:34:27;21.40;99.90
14908;DHT22;7545;52.092;7.006;2023-07-16T09:36:53;21.40;99.90
14908;DHT22;7545;52.092;7.006;2023-07-16T09:39:19;21.30;99.90
14908;DHT22;7545;52.092;7.006;2023-07-16T09:41:49;21.40;99.90
14908;DHT22;7545;52.092;7.006;2023-07-16T09:44:16;21.40;99.90
14908;DHT22;7545;52.092;7.006;2023-07-16T09:46:42;21.40;99.90
14908;DHT22;7545;52.092;7.006;2023-07-16T09:49:08;21.40;99.90
14908;DHT22;7545;52.092;7.006;2023-07-16T09:51:38;21.50;99.90
14908;DHT22;7545;52.092;7.006;2023-07-16T09:54:05;21.50;99.90
14908;DHT22;7545;52.092;7.006;2023-07-16T09:56:37;21.50;99.90
14908;DHT22;7545;52.092;7.006;2023-07-16T09:59:15;21.60;99.90
14908;DHT22;7545;52.092;7.006;2023-07-16T10:01:41;21.70;99.90
14908;DHT22;7545;52.092;7.006;2023-07-16T10:04:15;21.80;99.90
14908;DHT22;7545;52.092;7.006;2023-07-16T10:09:36;22.00;99.90
14908;DHT22;7545;52.092;7.006;2023-07-16T10:12:19;22.00;99.90
14908;DHT22;7545;52.092;7.006;2023-07-16T10:14:49;22.10;99.90
14908;DHT22;7545;52.092;7.006;2023-07-16T10:17:20;22.30;99.90
14908;DHT22;7545;52.092;7.006;2023-07-16T10:22:42;22.30;99.90
14908;DHT22;7545;52.092;7.006;2023-07-16T10:27:44;22.40;99.90
14908;DHT22;7545;52.092;7.006;2023-07-16T10:30:10;22.40;99.90
14908;DHT22;7545;52.092;7.006;2023-07-16T10:32:35;22.40;99.90
14908;DHT22;7545;52.092;7.006;2023-07-16T10:35:03;22.30;99.90
14908;DHT22;7545;52.092;7.006;2023-07-16T10:37:29;22.30;99.90
14908;DHT22;7545;52.092;7.006;2023-07-16T10:39:56;22.30;99.90
14908;DHT22;7545;52.092;7.006;2023-07-16T10:42:24;22.30;99.90
14908;DHT22;7545;52.092;7.006;2023-07-16T10:44:54;22.40;99.90
14908;DHT22;7545;52.092;7.006;2023-07-16T10:47:30;22.40;99.90
14908;DHT22;7545;52.092;7.006;2023-07-16T10:49:56;22.40;99.90
14908;DHT22;7545;52.092;7.006;2023-07-16T10:52:22;22.30;99.90
14908;DHT22;7545;52.092;7.006;2023-07-16T10:54:51;22.30;99.90
14908;DHT22;7545;52.092;7.006;2023-07-16T10:57:20;22.30;99.90
14908;DHT22;7545;52.092;7.006;2023-07-16T10:59:46;22.30;99.90
14908;DHT22;7545;52.092;7.006;2023-07-16T11:02:15;22.20;99.90
14908;DHT22;7545;52.092;7.006;2023-07-16T11:04:41;22.30;99.90
14908;DHT22;7545;52.092;7.006;2023-07-16T11:07:08;22.20;99.90
14908;DHT22;7545;52.092;7.006;2023-07-16T11:09:39;22.20;99.90
14908;DHT22;7545;52.092;7.006;2023-07-16T11:12:07;22.20;99.90
14908;DHT22;7545;52.092;7.006;2023-07-16T11:14:33;22.10;99.90
14908;DHT22;7545;52.092;7.006;2023-07-16T11:17:08;22.10;99.90
14908;DHT22;7545;52.092;7.006;2023-07-16T11:19:35;22.10;99.90
14908;DHT22;7545;52.092;7.006;2023-07-16T11:22:02;22.10;99.90
14908;DHT22;7545;52.092;7.006;2023-07-16T11:24:28;22.00;99.90
14908;DHT22;7545;52.092;7.006;2023-07-16T11:26:55;22.10;99.90
14908;DHT22;7545;52.092;7.006;2023-07-16T11:29:23;22.10;99.90
14908;DHT22;7545;52.092;7.006;2023-07-16T11:31:50;22.10;99.90
14908;DHT22;7545;52.092;7.006;2023-07-16T11:34:16;22.20;99.90
14908;DHT22;7545;52.092;7.006;2023-07-16T11:36:42;22.20;99.90
14908;DHT22;7545;52.092;7.006;2023-07-16T11:39:11;22.20;99.90
14908;DHT22;7545;52.092;7.006;2023-07-16T11:41:37;22.30;99.90
14908;DHT22;7545;52.092;7.006;2023-07-16T11:44:03;22.30;99.90
14908;DHT22;7545;52.092;7.006;2023-07-16T11:46:32;22.30;99.90
14908;DHT22;7545;52.092;7.006;2023-07-16T11:49:02;22.30;99.90
14908;DHT22;7545;52.092;7.006;2023-07-16T11:51:27;22.30;99.90
14908;DHT22;7545;52.092;7.006;2023-07-16T11:53:55;22.30;99.90
14908;DHT22;7545;52.092;7.006;2023-07-16T11:56:20;22.20;99.90
14908;DHT22;7545;52.092;7.006;2023-07-16T11:58:47;22.30;99.90
14908;DHT22;7545;52.092;7.006;2023-07-16T12:01:12;22.30;99.90
14908;DHT22;7545;52.092;7.006;2023-07-16T12:03:40;22.40;99.90
14908;DHT22;7545;52.092;7.006;2023-07-16T12:06:05;22.40;99.90
14908;DHT22;7545;52.092;7.006;2023-07-16T12:08:31;22.50;99.90
14908;DHT22;7545;52.092;7.006;2023-07-16T12:10:56;22.60;99.90
14908;DHT22;7545;52.092;7.006;2023-07-16T12:13:22;22.60;99.90
14908;DHT22;7545;52.092;7.006;2023-07-16T12:15:47;22.70;99.90
14908;DHT22;7545;52.092;7.006;2023-07-16T12:18:13;22.70;99.90
14908;DHT22;7545;52.092;7.006;2023-07-16T12:20:39;22.70;99.90
14908;DHT22;7545;52.092;7.006;2023-07-16T12:23:08;22.70;99.90
14908;DHT22;7545;52.092;7.006;2023-07-16T12:25:34;22.70;99.90
14908;DHT22;7545;52.092;7.006;2023-07-16T12:28:00;22.70;99.90
14908;DHT22;7545;52.092;7.006;2023-07-16T12:30:27;22.70;99.90
14908;DHT22;7545;52.092;7.006;2023-07-16T12:32:53;22.80;99.90
14908;DHT22;7545;52.092;7.006;2023-07-16T12:35:18;22.90;99.90
14908;DHT22;7545;52.092;7.006;2023-07-16T12:37:44;23.00;99.90
14908;DHT22;7545;52.092;7.006;2023-07-16T12:40:10;23.00;99.90
14908;DHT22;7545;52.092;7.006;2023-07-16T12:42:35;23.10;99.90
14908;DHT22;7545;52.092;7.006;2023-07-16T12:45:02;23.10;99.90
14908;DHT22;7545;52.092;7.006;2023-07-16T12:47:27;23.20;99.90
14908;DHT22;7545;52.092;7.006;2023-07-16T12:49:53;23.20;99.90
14908;DHT22;7545;52.092;7.006;2023-07-16T12:52:18;23.30;99.90
14908;DHT22;7545;52.092;7.006;2023-07-16T12:54:44;23.30;99.90
14908;DHT22;7545;52.092;7.006;2023-07-16T12:57:10;23.40;99.90
14908;DHT22;7545;52.092;7.006;2023-07-16T12:59:35;23.50;99.90
14908;DHT22;7545;52.092;7.006;2023-07-16T13:02:01;23.50;99.90
14908;DHT22;7545;52.092;7.006;2023-07-16T13:04:26;23.60;99.90
14908;DHT22;7545;52.092;7.006;2023-07-16T13:06:52;23.50;99.90
14908;DHT22;7545;52.092;7.006;2023-07-16T13:09:18;23.40;99.90
14908;DHT22;7545;52.092;7.006;2023-07-16T13:11:43;23.40;99.90
14908;DHT22;7545;52.092;7.006;2023-07-16T13:14:09;23.30;99.90
14908;DHT22;7545;52.092;7.006;2023-07-16T13:16:34;23.20;99.90
14908;DHT22;7545;52.092;7.006;2023-07-16T13:19:00;23.10;99.90
14908;DHT22;7545;52.092;7.006;2023-07-16T13:21:26;23.10;99.90
14908;DHT22;7545;52.092;7.006;2023-07-16T13:23:51;23.10;99.90
14908;DHT22;7545;52.092;7.006;2023-07-16T13:26:17;23.20;99.90
14908;DHT22;7545;52.092;7.006;2023-07-16T13:28:42;23.20;99.90
14908;DHT22;7545;52.092;7.006;2023-07-16T13:31:08;23.20;99.90
14908;DHT22;7545;52.092;7.006;2023-07-16T13:33:34;23.20;99.90
14908;DHT22;7545;52.092;7.006;2023-07-16T13:36:01;23.20;99.90
14908;DHT22;7545;52.092;7.006;2023-07-16T13:38:30;23.20;99.90
14908;DHT22;7545;52.092;7.006;2023-07-16T13:40:56;23.20;99.90
14908;DHT22;7545;52.092;7.006;2023-07-16T13:43:21;23.30;99.90
14908;DHT22;7545;52.092;7.006;2023-07-16T13:45:47;23.30;99.90
14908;DHT22;7545;52.092;7.006;2023-07-16T13:48:12;23.40;99.90
14908;DHT22;7545;52.092;7.006;2023-07-16T13:50:38;23.40;99.90
14908;DHT22;7545;52.092;7.006;2023-07-16T13:53:03;23.50;99.90
14908;DHT22;7545;52.092;7.006;2023-07-16T13:55:29;23.50;99.90
14908;DHT22;7545;52.092;7.006;2023-07-16T13:58:00;23.70;99.90
14908;DHT22;7545;52.092;7.006;2023-07-16T14:00:26;23.70;99.90
14908;DHT22;7545;52.092;7.006;2023-07-16T14:02:51;23.70;99.90
14908;DHT22;7545;52.092;7.006;2023-07-16T14:05:17;23.70;99.90
14908;DHT22;7545;52.092;7.006;2023-07-16T14:07:43;23.70;99.90
14908;DHT22;7545;52.092;7.006;2023-07-16T14:10:09;23.80;99.90
14908;DHT22;7545;52.092;7.006;2023-07-16T14:12:34;23.80;99.90
14908;DHT22;7545;52.092;7.006;2023-07-16T14:15:00;23.90;99.90
14908;DHT22;7545;52.092;7.006;2023-07-16T14:17:26;24.00;99.90
14908;DHT22;7545;52.092;7.006;2023-07-16T14:19:51;24.10;99.90
14908;DHT22;7545;52.092;7.006;2023-07-16T14:22:18;24.10;99.90
14908;DHT22;7545;52.092;7.006;2023-07-16T14:24:43;24.10;99.90
14908;DHT22;7545;52.092;7.006;2023-07-16T14:27:09;24.20;99.90
14908;DHT22;7545;52.092;7.006;2023-07-16T14:29:35;24.10;99.90
14908;DHT22;7545;52.092;7.006;2023-07-16T14:32:01;24.10;99.90
14908;DHT22;7545;52.092;7.006;2023-07-16T14:34:27;24.10;99.90
14908;DHT22;7545;52.092;7.006;2023-07-16T14:36:53;24.10;99.90
14908;DHT22;7545;52.092;7.006;2023-07-16T14:39:18;24.10;99.90
14908;DHT22;7545;52.092;7.006;2023-07-16T14:41:45;24.00;99.90
14908;DHT22;7545;52.092;7.006;2023-07-16T14:44:10;23.90;99.90
14908;DHT22;7545;52.092;7.006;2023-07-16T14:46:36;23.80;99.90
14908;DHT22;7545;52.092;7.006;2023-07-16T14:49:03;23.60;99.90
14908;DHT22;7545;52.092;7.006;2023-07-16T14:51:28;23.70;99.90
14908;DHT22;7545;52.092;7.006;2023-07-16T14:53:55;23.70;99.90
14908;DHT22;7545;52.092;7.006;2023-07-16T14:56:21;23.70;99.90
14908;DHT22;7545;52.092;7.006;2023-07-16T14:58:47;23.70;99.90
14908;DHT22;7545;52.092;7.006;2023-07-16T15:01:12;23.80;99.90
14908;DHT22;7545;52.092;7.006;2023-07-16T15:03:38;23.80;99.90
14908;DHT22;7545;52.092;7.006;2023-07-16T15:06:06;23.80;99.90
14908;DHT22;7545;52.092;7.006;2023-07-16T15:08:31;23.80;99.90
14908;DHT22;7545;52.092;7.006;2023-07-16T15:11:01;23.70;99.90
14908;DHT22;7545;52.092;7.006;2023-07-16T15:13:26;23.70;99.90
14908;DHT22;7545;52.092;7.006;2023-07-16T15:15:54;23.60;99.90
14908;DHT22;7545;52.092;7.006;2023-07-16T15:18:20;23.60;99.90
14908;DHT22;7545;52.092;7.006;2023-07-16T15:20:47;23.60;99.90
14908;DHT22;7545;52.092;7.006;2023-07-16T15:23:12;23.70;99.90
14908;DHT22;7545;52.092;7.006;2023-07-16T15:25:41;23.70;99.90
14908;DHT22;7545;52.092;7.006;2023-07-16T15:28:08;23.70;99.90
14908;DHT22;7545;52.092;7.006;2023-07-16T15:30:34;23.80;99.90
14908;DHT22;7545;52.092;7.006;2023-07-16T15:32:59;23.70;99.90
14908;DHT22;7545;52.092;7.006;2023-07-16T15:35:25;23.80;99.90
14908;DHT22;7545;52.092;7.006;2023-07-16T15:37:51;23.80;99.90
14908;DHT22;7545;52.092;7.006;2023-07-16T15:40:16;23.80;99.90
14908;DHT22;7545;52.092;7.006;2023-07-16T15:42:42;23.80;99.90
14908;DHT22;7545;52.092;7.006;2023-07-16T15:45:10;23.80;99.90
14908;DHT22;7545;52.092;7.006;2023-07-16T15:47:38;23.80;99.90
14908;DHT22;7545;52.092;7.006;2023-07-16T15:50:04;23.80;99.90
14908;DHT22;7545;52.092;7.006;2023-07-16T15:52:30;23.70;99.90
14908;DHT22;7545;52.092;7.006;2023-07-16T15:54:55;23.70;99.90
14908;DHT22;7545;52.092;7.006;2023-07-16T15:57:21;23.70;99.90